Tokuyo Maru No.15 — JD2184 — position and weather

sailwx.info

Track history (hours):
 
Tides and Currents Weather Stations Pressure Air Temp Water Temp Dewpoint Dewpoint Depression Visibility Wind Speed Wind Dir Waves Ship Positions

Tokuyo Maru No.15

Last reported at 2015-Jul-02 11:21 UTC. Time now 2015-Jul-05 21:07 UTC.
Position N 35°04' E 139°34'.

Length 66 m; draft 4.5 m.

Type: Tanker. MMSI: 431402034.

Date/timePositionNaut miles runAvg speedWind from/ knotsBaromVisibWave heightAir tempDewpointWater temp
2015-Jul-02 11:21N 35°04' E 139°34'910.9
2015-Jul-02 10:33N 35°09' E 139°43'1010.3
2015-Jul-02 09:33N 35°19' E 139°43'1110.7
2015-Jul-02 08:33N 35°28' E 139°49'1110.8
2015-Jul-02 07:33N 35°31' E 140°03'0 0.1
2015-Jul-02 06:33N 35°31' E 140°03'0 0.0
2015-Jul-02 05:33N 35°31' E 140°03'0 0.0
2015-Jul-02 04:25N 35°31' E 140°03'0 0.0
2015-Jul-02 03:33N 35°31' E 140°03'0 0.0
2015-Jul-02 02:34N 35°31' E 140°03'0 0.0
2015-Jul-02 01:33N 35°31' E 140°03'0 0.0
2015-Jul-02 00:33N 35°31' E 140°03'0 0.0
2015-Jul-01 23:33N 35°31' E 140°03'0 0.0
2015-Jul-01 22:33N 35°31' E 140°03'6 5.7
2015-Jul-01 21:32N 35°29' E 139°56'0 0.0
2015-Jul-01 20:32N 35°29' E 139°56'0 0.0
2015-Jul-01 19:32N 35°29' E 139°56'0 0.0
2015-Jul-01 18:32N 35°29' E 139°56'0 0.1
2015-Jul-01 17:32N 35°29' E 139°56'0 0.0
2015-Jul-01 16:32N 35°29' E 139°56'0 0.0
2015-Jul-01 15:32N 35°29' E 139°56'0 0.0
2015-Jul-01 14:32N 35°29' E 139°56'0 0.0
2015-Jul-01 13:32N 35°29' E 139°56'0 0.0
2015-Jul-01 12:24N 35°29' E 139°56'0 0.1
2015-Jul-01 11:32N 35°29' E 139°56'0 0.0
2015-Jul-01 10:32N 35°29' E 139°56'0 0.1
2015-Jul-01 09:34N 35°29' E 139°56'0 0.0
2015-Jul-01 08:32N 35°29' E 139°56'0 0.0
2015-Jul-01 07:33N 35°29' E 139°56'0 0.0
2015-Jul-01 06:33N 35°29' E 139°56'0 0.1
2015-Jul-01 05:32N 35°29' E 139°56'0 0.0
2015-Jul-01 04:34N 35°29' E 139°56'6 6.2
2015-Jul-01 03:33N 35°26' E 139°49'1110.9
2015-Jul-01 02:33N 35°15' E 139°47'1111.5
2015-Jul-01 01:34N 35°05' E 139°41'  
2015-Jun-28 05:09N 34°07' E 134°59'1313.2
2015-Jun-28 04:12N 34°20' E 134°59'1113.1
2015-Jun-28 03:23N 34°27' E 135°09'1112.6
2015-Jun-28 02:32N 34°33' E 135°20'4 1.0
2015-Jun-27 22:19N 34°32' E 135°25'4 5.2
2015-Jun-27 21:33N 34°32' E 135°21'1 1.4
2015-Jun-27 20:33N 34°31' E 135°19'0 0.0
2015-Jun-27 19:32N 34°31' E 135°19'0 0.1
2015-Jun-27 18:33N 34°31' E 135°19'0 0.0
2015-Jun-27 17:26N 34°31' E 135°19'6 6.9
2015-Jun-27 16:33N 34°29' E 135°13'1711.7
2015-Jun-27 15:08N 34°16' E 134°59'911.8
2015-Jun-27 14:21N 34°07' E 135°00'4 0.1
2015-Jun-25 16:28N 34°03' E 135°00'1111.9
2015-Jun-25 15:34N 34°14' E 134°59'1311.0
2015-Jun-25 14:24N 34°25' E 135°06'1012.1
2015-Jun-25 13:33N 34°30' E 135°17'7 1.0
2015-Jun-25 06:33N 34°33' E 135°24'4 4.2
2015-Jun-25 05:33N 34°32' E 135°19'8 7.9
2015-Jun-25 04:33N 34°28' E 135°11'1711.9
2015-Jun-25 03:09N 34°15' E 134°59'1012.2
2015-Jun-25 02:22N 34°05' E 135°01'  
Track history (hours):
 
Tides and Currents Weather Stations Pressure Air Temp Water Temp Dewpoint Dewpoint Depression Visibility Wind Speed Wind Dir Waves Ship Positions

Tokuyo Maru No.15

Last reported at 2015-Jul-02 11:21 UTC. Time now 2015-Jul-05 21:07 UTC.
Position N 35°04' E 139°34'.

Length 66 m; draft 4.5 m.

Type: Tanker. MMSI: 431402034.

Date/timePositionNaut miles runAvg speedWind from/ knotsBaromVisibWave heightAir tempDewpointWater temp
2015-Jul-02 11:21N 35°04' E 139°34'910.9
2015-Jul-02 10:33N 35°09' E 139°43'1010.3
2015-Jul-02 09:33N 35°19' E 139°43'1110.7
2015-Jul-02 08:33N 35°28' E 139°49'1110.8
2015-Jul-02 07:33N 35°31' E 140°03'0 0.1
2015-Jul-02 06:33N 35°31' E 140°03'0 0.0
2015-Jul-02 05:33N 35°31' E 140°03'0 0.0
2015-Jul-02 04:25N 35°31' E 140°03'0 0.0
2015-Jul-02 03:33N 35°31' E 140°03'0 0.0
2015-Jul-02 02:34N 35°31' E 140°03'0 0.0
2015-Jul-02 01:33N 35°31' E 140°03'0 0.0
2015-Jul-02 00:33N 35°31' E 140°03'0 0.0
2015-Jul-01 23:33N 35°31' E 140°03'0 0.0
2015-Jul-01 22:33N 35°31' E 140°03'6 5.7
2015-Jul-01 21:32N 35°29' E 139°56'0 0.0
2015-Jul-01 20:32N 35°29' E 139°56'0 0.0
2015-Jul-01 19:32N 35°29' E 139°56'0 0.0
2015-Jul-01 18:32N 35°29' E 139°56'0 0.1
2015-Jul-01 17:32N 35°29' E 139°56'0 0.0
2015-Jul-01 16:32N 35°29' E 139°56'0 0.0
2015-Jul-01 15:32N 35°29' E 139°56'0 0.0
2015-Jul-01 14:32N 35°29' E 139°56'0 0.0
2015-Jul-01 13:32N 35°29' E 139°56'0 0.0
2015-Jul-01 12:24N 35°29' E 139°56'0 0.1
2015-Jul-01 11:32N 35°29' E 139°56'0 0.0
2015-Jul-01 10:32N 35°29' E 139°56'0 0.1
2015-Jul-01 09:34N 35°29' E 139°56'0 0.0
2015-Jul-01 08:32N 35°29' E 139°56'0 0.0
2015-Jul-01 07:33N 35°29' E 139°56'0 0.0
2015-Jul-01 06:33N 35°29' E 139°56'0 0.1
2015-Jul-01 05:32N 35°29' E 139°56'0 0.0
2015-Jul-01 04:34N 35°29' E 139°56'6 6.2
2015-Jul-01 03:33N 35°26' E 139°49'1110.9
2015-Jul-01 02:33N 35°15' E 139°47'1111.5
2015-Jul-01 01:34N 35°05' E 139°41'  
2015-Jun-28 05:09N 34°07' E 134°59'1313.2
2015-Jun-28 04:12N 34°20' E 134°59'1113.1
2015-Jun-28 03:23N 34°27' E 135°09'1112.6
2015-Jun-28 02:32N 34°33' E 135°20'4 1.0
2015-Jun-27 22:19N 34°32' E 135°25'4 5.2
2015-Jun-27 21:33N 34°32' E 135°21'1 1.4
2015-Jun-27 20:33N 34°31' E 135°19'0 0.0
2015-Jun-27 19:32N 34°31' E 135°19'0 0.1
2015-Jun-27 18:33N 34°31' E 135°19'0 0.0
2015-Jun-27 17:26N 34°31' E 135°19'6 6.9
2015-Jun-27 16:33N 34°29' E 135°13'1711.7
2015-Jun-27 15:08N 34°16' E 134°59'911.8
2015-Jun-27 14:21N 34°07' E 135°00'4 0.1
2015-Jun-25 16:28N 34°03' E 135°00'1111.9
2015-Jun-25 15:34N 34°14' E 134°59'1311.0
2015-Jun-25 14:24N 34°25' E 135°06'1012.1
2015-Jun-25 13:33N 34°30' E 135°17'7 1.0
2015-Jun-25 06:33N 34°33' E 135°24'4 4.2
2015-Jun-25 05:33N 34°32' E 135°19'8 7.9
2015-Jun-25 04:33N 34°28' E 135°11'1711.9
2015-Jun-25 03:09N 34°15' E 134°59'1012.2
2015-Jun-25 02:22N 34°05' E 135°01'  

Dump ship's entire track history